sensor_id;sensor_type;location;lat;lon;timestamp;temperature;humidity
52209;DHT22;38507;53.132;6.394;2024-01-30T00:01:42;5.90;99.90
52209;DHT22;38507;53.132;6.394;2024-01-30T00:04:07;5.90;99.90
52209;DHT22;38507;53.132;6.394;2024-01-30T00:06:33;5.80;99.90
52209;DHT22;38507;53.132;6.394;2024-01-30T00:08:58;5.80;99.90
52209;DHT22;38507;53.132;6.394;2024-01-30T00:11:24;5.80;99.90
52209;DHT22;38507;53.132;6.394;2024-01-30T00:13:54;6.20;99.90
52209;DHT22;38507;53.132;6.394;2024-01-30T00:16:22;6.20;99.90
52209;DHT22;38507;53.132;6.394;2024-01-30T00:18:50;5.80;99.90
52209;DHT22;38507;53.132;6.394;2024-01-30T00:21:16;5.80;99.90
52209;DHT22;38507;53.132;6.394;2024-01-30T00:23:41;5.80;99.90
52209;DHT22;38507;53.132;6.394;2024-01-30T00:26:07;5.80;99.90
52209;DHT22;38507;53.132;6.394;2024-01-30T00:28:32;5.70;99.90
52209;DHT22;38507;53.132;6.394;2024-01-30T00:30:58;5.70;99.90
52209;DHT22;38507;53.132;6.394;2024-01-30T00:33:24;5.70;99.90
52209;DHT22;38507;53.132;6.394;2024-01-30T00:35:49;5.70;99.90
52209;DHT22;38507;53.132;6.394;2024-01-30T00:38:15;5.70;99.90
52209;DHT22;38507;53.132;6.394;2024-01-30T00:40:41;5.70;99.90
52209;DHT22;38507;53.132;6.394;2024-01-30T00:43:06;5.70;99.90
52209;DHT22;38507;53.132;6.394;2024-01-30T00:45:33;5.70;99.90
52209;DHT22;38507;53.132;6.394;2024-01-30T00:47:59;6.30;99.90
52209;DHT22;38507;53.132;6.394;2024-01-30T00:50:25;6.60;99.90
52209;DHT22;38507;53.132;6.394;2024-01-30T00:52:50;5.70;99.90
52209;DHT22;38507;53.132;6.394;2024-01-30T00:55:16;5.60;99.90
52209;DHT22;38507;53.132;6.394;2024-01-30T00:57:42;5.70;99.90
52209;DHT22;38507;53.132;6.394;2024-01-30T01:00:08;6.50;99.90
52209;DHT22;38507;53.132;6.394;2024-01-30T01:02:35;5.60;99.90
52209;DHT22;38507;53.132;6.394;2024-01-30T01:05:01;6.60;99.90
52209;DHT22;38507;53.132;6.394;2024-01-30T01:07:26;5.60;99.90
52209;DHT22;38507;53.132;6.394;2024-01-30T01:09:52;6.60;99.90
52209;DHT22;38507;53.132;6.394;2024-01-30T01:12:18;5.60;99.90
52209;DHT22;38507;53.132;6.394;2024-01-30T01:14:43;5.60;99.90
52209;DHT22;38507;53.132;6.394;2024-01-30T01:17:09;5.60;99.90
52209;DHT22;38507;53.132;6.394;2024-01-30T01:19:35;5.60;99.90
52209;DHT22;38507;53.132;6.394;2024-01-30T01:22:00;5.60;99.90
52209;DHT22;38507;53.132;6.394;2024-01-30T01:24:26;6.40;99.90
52209;DHT22;38507;53.132;6.394;2024-01-30T01:26:51;5.60;99.90
52209;DHT22;38507;53.132;6.394;2024-01-30T01:29:17;6.40;99.90
52209;DHT22;38507;53.132;6.394;2024-01-30T01:31:43;5.60;99.90
52209;DHT22;38507;53.132;6.394;2024-01-30T01:34:12;5.50;99.90
52209;DHT22;38507;53.132;6.394;2024-01-30T01:36:39;5.50;99.90
52209;DHT22;38507;53.132;6.394;2024-01-30T01:39:05;6.50;99.90
52209;DHT22;38507;53.132;6.394;2024-01-30T01:41:31;6.40;99.90
52209;DHT22;38507;53.132;6.394;2024-01-30T01:44:00;5.60;99.90
52209;DHT22;38507;53.132;6.394;2024-01-30T01:46:30;5.50;99.90
52209;DHT22;38507;53.132;6.394;2024-01-30T01:48:58;5.50;99.90
52209;DHT22;38507;53.132;6.394;2024-01-30T01:51:26;5.50;99.90
52209;DHT22;38507;53.132;6.394;2024-01-30T01:53:53;5.50;99.90
52209;DHT22;38507;53.132;6.394;2024-01-30T01:56:20;5.50;99.90
52209;DHT22;38507;53.132;6.394;2024-01-30T01:58:47;5.50;99.90
52209;DHT22;38507;53.132;6.394;2024-01-30T02:01:17;6.60;99.90
52209;DHT22;38507;53.132;6.394;2024-01-30T02:03:46;5.50;99.90
52209;DHT22;38507;53.132;6.394;2024-01-30T02:06:13;5.50;99.90
52209;DHT22;38507;53.132;6.394;2024-01-30T02:08:39;6.40;99.90
52209;DHT22;38507;53.132;6.394;2024-01-30T02:11:05;6.50;99.90
52209;DHT22;38507;53.132;6.394;2024-01-30T02:13:30;5.50;99.90
52209;DHT22;38507;53.132;6.394;2024-01-30T02:15:56;5.50;99.90
52209;DHT22;38507;53.132;6.394;2024-01-30T02:18:22;6.20;99.90
52209;DHT22;38507;53.132;6.394;2024-01-30T02:20:48;6.50;99.90
52209;DHT22;38507;53.132;6.394;2024-01-30T02:23:15;5.40;99.90
52209;DHT22;38507;53.132;6.394;2024-01-30T02:25:42;5.50;99.90
52209;DHT22;38507;53.132;6.394;2024-01-30T02:28:12;5.50;99.90
52209;DHT22;38507;53.132;6.394;2024-01-30T02:30:44;6.10;99.90
52209;DHT22;38507;53.132;6.394;2024-01-30T02:33:10;5.50;99.90
52209;DHT22;38507;53.132;6.394;2024-01-30T02:35:35;5.50;99.90
52209;DHT22;38507;53.132;6.394;2024-01-30T02:38:01;6.60;99.90
52209;DHT22;38507;53.132;6.394;2024-01-30T02:40:27;5.50;99.90
52209;DHT22;38507;53.132;6.394;2024-01-30T02:42:53;5.60;99.90
52209;DHT22;38507;53.132;6.394;2024-01-30T02:45:18;5.50;99.90
52209;DHT22;38507;53.132;6.394;2024-01-30T02:47:45;5.50;99.90
52209;DHT22;38507;53.132;6.394;2024-01-30T02:50:10;5.50;99.90
52209;DHT22;38507;53.132;6.394;2024-01-30T02:52:36;5.50;99.90
52209;DHT22;38507;53.132;6.394;2024-01-30T02:55:02;5.70;99.90
52209;DHT22;38507;53.132;6.394;2024-01-30T02:57:28;5.60;99.90
52209;DHT22;38507;53.132;6.394;2024-01-30T02:59:54;6.50;99.90
52209;DHT22;38507;53.132;6.394;2024-01-30T03:02:20;6.70;99.90
52209;DHT22;38507;53.132;6.394;2024-01-30T03:04:45;6.60;99.90
52209;DHT22;38507;53.132;6.394;2024-01-30T03:07:11;6.80;99.90
52209;DHT22;38507;53.132;6.394;2024-01-30T03:09:37;6.50;99.90
52209;DHT22;38507;53.132;6.394;2024-01-30T03:12:03;5.90;99.90
52209;DHT22;38507;53.132;6.394;2024-01-30T03:14:32;5.60;99.90
52209;DHT22;38507;53.132;6.394;2024-01-30T03:16:58;6.30;99.90
52209;DHT22;38507;53.132;6.394;2024-01-30T03:19:24;6.80;99.90
52209;DHT22;38507;53.132;6.394;2024-01-30T03:21:50;6.40;99.90
52209;DHT22;38507;53.132;6.394;2024-01-30T03:24:16;5.60;99.90
52209;DHT22;38507;53.132;6.394;2024-01-30T03:26:43;5.70;99.90
52209;DHT22;38507;53.132;6.394;2024-01-30T03:29:08;6.30;99.90
52209;DHT22;38507;53.132;6.394;2024-01-30T03:31:34;5.70;99.90
52209;DHT22;38507;53.132;6.394;2024-01-30T03:34:00;5.80;99.90
52209;DHT22;38507;53.132;6.394;2024-01-30T03:36:26;6.40;99.90
52209;DHT22;38507;53.132;6.394;2024-01-30T03:38:52;6.00;99.90
52209;DHT22;38507;53.132;6.394;2024-01-30T03:41:18;5.70;99.90
52209;DHT22;38507;53.132;6.394;2024-01-30T03:43:43;5.70;99.90
52209;DHT22;38507;53.132;6.394;2024-01-30T03:46:09;5.70;99.90
52209;DHT22;38507;53.132;6.394;2024-01-30T03:48:37;6.20;99.90
52209;DHT22;38507;53.132;6.394;2024-01-30T03:51:02;6.50;99.90
52209;DHT22;38507;53.132;6.394;2024-01-30T03:53:28;5.70;99.90
52209;DHT22;38507;53.132;6.394;2024-01-30T03:55:54;5.80;99.90
52209;DHT22;38507;53.132;6.394;2024-01-30T03:58:19;6.70;99.90
52209;DHT22;38507;53.132;6.394;2024-01-30T04:00:45;6.80;99.90
52209;DHT22;38507;53.132;6.394;2024-01-30T04:03:11;5.80;99.90
52209;DHT22;38507;53.132;6.394;2024-01-30T04:05:36;6.80;99.90
52209;DHT22;38507;53.132;6.394;2024-01-30T04:08:02;5.80;99.90
52209;DHT22;38507;53.132;6.394;2024-01-30T04:10:28;5.80;99.90
52209;DHT22;38507;53.132;6.394;2024-01-30T04:12:53;5.90;99.90
52209;DHT22;38507;53.132;6.394;2024-01-30T04:15:19;5.90;99.90
52209;DHT22;38507;53.132;6.394;2024-01-30T04:17:45;5.90;99.90
52209;DHT22;38507;53.132;6.394;2024-01-30T04:20:14;7.00;99.90
52209;DHT22;38507;53.132;6.394;2024-01-30T04:22:45;6.00;99.90
52209;DHT22;38507;53.132;6.394;2024-01-30T04:25:12;6.00;99.90
52209;DHT22;38507;53.132;6.394;2024-01-30T04:27:37;6.00;99.90
52209;DHT22;38507;53.132;6.394;2024-01-30T04:30:03;6.10;99.90
52209;DHT22;38507;53.132;6.394;2024-01-30T04:32:29;6.10;99.90
52209;DHT22;38507;53.132;6.394;2024-01-30T04:34:55;6.10;99.90
52209;DHT22;38507;53.132;6.394;2024-01-30T04:37:20;7.10;99.90
52209;DHT22;38507;53.132;6.394;2024-01-30T04:39:46;7.20;99.90
52209;DHT22;38507;53.132;6.394;2024-01-30T04:42:12;6.20;99.90
52209;DHT22;38507;53.132;6.394;2024-01-30T04:44:37;7.30;99.90
52209;DHT22;38507;53.132;6.394;2024-01-30T04:47:03;6.20;99.90
52209;DHT22;38507;53.132;6.394;2024-01-30T04:49:31;6.20;99.90
52209;DHT22;38507;53.132;6.394;2024-01-30T04:51:57;6.80;99.90
52209;DHT22;38507;53.132;6.394;2024-01-30T04:54:23;6.90;99.90
52209;DHT22;38507;53.132;6.394;2024-01-30T04:56:49;7.30;99.90
52209;DHT22;38507;53.132;6.394;2024-01-30T04:59:14;6.30;99.90
52209;DHT22;38507;53.132;6.394;2024-01-30T05:01:40;7.00;99.90
52209;DHT22;38507;53.132;6.394;2024-01-30T05:04:07;6.30;99.90
52209;DHT22;38507;53.132;6.394;2024-01-30T05:06:33;6.30;99.90
52209;DHT22;38507;53.132;6.394;2024-01-30T05:08:59;7.40;99.90
52209;DHT22;38507;53.132;6.394;2024-01-30T05:11:24;6.90;99.90
52209;DHT22;38507;53.132;6.394;2024-01-30T05:13:50;6.60;99.90
52209;DHT22;38507;53.132;6.394;2024-01-30T05:16:15;7.10;99.90
52209;DHT22;38507;53.132;6.394;2024-01-30T05:18:41;6.40;99.90
52209;DHT22;38507;53.132;6.394;2024-01-30T05:21:07;6.30;99.90
52209;DHT22;38507;53.132;6.394;2024-01-30T05:23:32;6.40;99.90
52209;DHT22;38507;53.132;6.394;2024-01-30T05:25:58;7.30;99.90
52209;DHT22;38507;53.132;6.394;2024-01-30T05:28:26;6.40;99.90
52209;DHT22;38507;53.132;6.394;2024-01-30T05:30:52;6.40;99.90
52209;DHT22;38507;53.132;6.394;2024-01-30T05:33:17;7.10;99.90
52209;DHT22;38507;53.132;6.394;2024-01-30T05:35:43;6.40;99.90
52209;DHT22;38507;53.132;6.394;2024-01-30T05:38:09;6.40;99.90
52209;DHT22;38507;53.132;6.394;2024-01-30T05:40:34;6.40;99.90
52209;DHT22;38507;53.132;6.394;2024-01-30T05:43:00;6.40;99.90
52209;DHT22;38507;53.132;6.394;2024-01-30T05:45:28;6.90;99.90
52209;DHT22;38507;53.132;6.394;2024-01-30T05:47:53;7.20;99.90
52209;DHT22;38507;53.132;6.394;2024-01-30T05:50:19;6.50;99.90
52209;DHT22;38507;53.132;6.394;2024-01-30T05:52:45;7.20;99.90
52209;DHT22;38507;53.132;6.394;2024-01-30T05:55:12;6.50;99.90
52209;DHT22;38507;53.132;6.394;2024-01-30T05:57:38;6.50;99.90
52209;DHT22;38507;53.132;6.394;2024-01-30T06:00:07;7.20;99.90
52209;DHT22;38507;53.132;6.394;2024-01-30T06:02:33;6.60;99.90
52209;DHT22;38507;53.132;6.394;2024-01-30T06:04:58;6.60;99.90
52209;DHT22;38507;53.132;6.394;2024-01-30T06:07:24;7.50;99.90
52209;DHT22;38507;53.132;6.394;2024-01-30T06:09:50;7.70;99.90
52209;DHT22;38507;53.132;6.394;2024-01-30T06:12:15;6.70;99.90
52209;DHT22;38507;53.132;6.394;2024-01-30T06:14:41;7.10;99.90
52209;DHT22;38507;53.132;6.394;2024-01-30T06:17:08;6.70;99.90
52209;DHT22;38507;53.132;6.394;2024-01-30T06:19:34;7.70;99.90
52209;DHT22;38507;53.132;6.394;2024-01-30T06:22:00;7.60;99.90
52209;DHT22;38507;53.132;6.394;2024-01-30T06:24:26;6.90;99.90
52209;DHT22;38507;53.132;6.394;2024-01-30T06:26:53;6.90;99.90
52209;DHT22;38507;53.132;6.394;2024-01-30T06:29:18;7.30;99.90
52209;DHT22;38507;53.132;6.394;2024-01-30T06:31:44;8.10;99.90
52209;DHT22;38507;53.132;6.394;2024-01-30T06:34:10;7.40;99.90
52209;DHT22;38507;53.132;6.394;2024-01-30T06:36:37;7.00;99.90
52209;DHT22;38507;53.132;6.394;2024-01-30T06:39:03;7.70;99.90
52209;DHT22;38507;53.132;6.394;2024-01-30T06:41:29;8.00;99.90
52209;DHT22;38507;53.132;6.394;2024-01-30T06:43:55;7.10;99.90
52209;DHT22;38507;53.132;6.394;2024-01-30T06:46:21;7.80;99.90
52209;DHT22;38507;53.132;6.394;2024-01-30T06:48:47;8.00;99.90
52209;DHT22;38507;53.132;6.394;2024-01-30T06:51:12;7.60;99.90
52209;DHT22;38507;53.132;6.394;2024-01-30T06:53:38;8.30;99.90
52209;DHT22;38507;53.132;6.394;2024-01-30T06:56:04;7.20;99.90
52209;DHT22;38507;53.132;6.394;2024-01-30T06:58:30;7.10;99.90
52209;DHT22;38507;53.132;6.394;2024-01-30T07:00:56;7.20;99.90
52209;DHT22;38507;53.132;6.394;2024-01-30T07:03:22;7.20;99.90
52209;DHT22;38507;53.132;6.394;2024-01-30T07:05:47;7.20;99.90
52209;DHT22;38507;53.132;6.394;2024-01-30T07:08:15;7.20;99.90
52209;DHT22;38507;53.132;6.394;2024-01-30T07:10:43;7.40;99.90
52209;DHT22;38507;53.132;6.394;2024-01-30T07:13:09;7.20;99.90
52209;DHT22;38507;53.132;6.394;2024-01-30T07:15:35;7.20;99.90
52209;DHT22;38507;53.132;6.394;2024-01-30T07:18:02;8.00;99.90
52209;DHT22;38507;53.132;6.394;2024-01-30T07:20:28;7.30;99.90
52209;DHT22;38507;53.132;6.394;2024-01-30T07:22:56;8.40;99.90
52209;DHT22;38507;53.132;6.394;2024-01-30T07:25:21;8.30;99.90
52209;DHT22;38507;53.132;6.394;2024-01-30T07:27:55;7.30;99.90
52209;DHT22;38507;53.132;6.394;2024-01-30T07:30:20;7.30;99.90
52209;DHT22;38507;53.132;6.394;2024-01-30T07:32:46;8.10;99.90
52209;DHT22;38507;53.132;6.394;2024-01-30T07:35:13;7.20;99.90
52209;DHT22;38507;53.132;6.394;2024-01-30T07:37:39;7.30;99.90
52209;DHT22;38507;53.132;6.394;2024-01-30T07:40:05;8.40;99.90
52209;DHT22;38507;53.132;6.394;2024-01-30T07:42:32;7.30;99.90
52209;DHT22;38507;53.132;6.394;2024-01-30T07:44:58;7.30;99.90
52209;DHT22;38507;53.132;6.394;2024-01-30T07:47:23;7.30;99.90
52209;DHT22;38507;53.132;6.394;2024-01-30T07:49:49;7.40;99.90
52209;DHT22;38507;53.132;6.394;2024-01-30T07:52:15;7.30;99.90
52209;DHT22;38507;53.132;6.394;2024-01-30T07:54:50;7.60;99.90
52209;DHT22;38507;53.132;6.394;2024-01-30T07:57:16;7.80;99.90
52209;DHT22;38507;53.132;6.394;2024-01-30T07:59:45;7.30;99.90
52209;DHT22;38507;53.132;6.394;2024-01-30T08:02:12;7.40;99.90
52209;DHT22;38507;53.132;6.394;2024-01-30T08:04:38;7.40;99.90
52209;DHT22;38507;53.132;6.394;2024-01-30T08:07:04;7.40;99.90
52209;DHT22;38507;53.132;6.394;2024-01-30T08:09:29;7.40;99.90
52209;DHT22;38507;53.132;6.394;2024-01-30T08:11:55;7.40;99.90
52209;DHT22;38507;53.132;6.394;2024-01-30T08:14:21;7.40;99.90
52209;DHT22;38507;53.132;6.394;2024-01-30T08:16:46;8.20;99.90
52209;DHT22;38507;53.132;6.394;2024-01-30T08:19:12;7.50;99.90
52209;DHT22;38507;53.132;6.394;2024-01-30T08:21:37;7.50;99.90
52209;DHT22;38507;53.132;6.394;2024-01-30T08:24:04;7.60;99.90
52209;DHT22;38507;53.132;6.394;2024-01-30T08:26:31;7.50;99.90
52209;DHT22;38507;53.132;6.394;2024-01-30T08:28:56;8.50;99.90
52209;DHT22;38507;53.132;6.394;2024-01-30T08:31:22;7.60;99.90
52209;DHT22;38507;53.132;6.394;2024-01-30T08:33:48;7.60;99.90
52209;DHT22;38507;53.132;6.394;2024-01-30T08:36:15;8.40;99.90
52209;DHT22;38507;53.132;6.394;2024-01-30T08:38:40;8.60;99.90
52209;DHT22;38507;53.132;6.394;2024-01-30T08:41:07;8.70;99.90
52209;DHT22;38507;53.132;6.394;2024-01-30T08:43:33;8.40;99.90
52209;DHT22;38507;53.132;6.394;2024-01-30T08:46:02;8.60;99.90
52209;DHT22;38507;53.132;6.394;2024-01-30T08:48:28;7.80;99.90
52209;DHT22;38507;53.132;6.394;2024-01-30T08:50:54;8.90;99.90
52209;DHT22;38507;53.132;6.394;2024-01-30T08:53:20;8.60;99.90
52209;DHT22;38507;53.132;6.394;2024-01-30T08:55:45;8.40;99.90
52209;DHT22;38507;53.132;6.394;2024-01-30T08:58:11;8.30;99.90
52209;DHT22;38507;53.132;6.394;2024-01-30T09:00:37;8.00;99.90
52209;DHT22;38507;53.132;6.394;2024-01-30T09:03:03;8.70;99.90
52209;DHT22;38507;53.132;6.394;2024-01-30T09:05:39;8.10;99.90
52209;DHT22;38507;53.132;6.394;2024-01-30T09:08:04;8.10;99.90
52209;DHT22;38507;53.132;6.394;2024-01-30T09:10:30;8.10;99.90
52209;DHT22;38507;53.132;6.394;2024-01-30T09:12:56;8.20;99.90
52209;DHT22;38507;53.132;6.394;2024-01-30T09:15:21;8.50;99.90
52209;DHT22;38507;53.132;6.394;2024-01-30T09:17:47;8.80;99.90
52209;DHT22;38507;53.132;6.394;2024-01-30T09:20:13;8.90;99.90
52209;DHT22;38507;53.132;6.394;2024-01-30T09:22:38;8.30;99.90
52209;DHT22;38507;53.132;6.394;2024-01-30T09:25:04;9.00;99.90
52209;DHT22;38507;53.132;6.394;2024-01-30T09:27:30;8.50;99.90
52209;DHT22;38507;53.132;6.394;2024-01-30T09:29:56;8.50;99.90
52209;DHT22;38507;53.132;6.394;2024-01-30T09:32:22;9.20;99.90
52209;DHT22;38507;53.132;6.394;2024-01-30T09:34:47;8.70;99.90
52209;DHT22;38507;53.132;6.394;2024-01-30T09:37:13;9.40;99.90
52209;DHT22;38507;53.132;6.394;2024-01-30T09:39:41;8.80;99.90
52209;DHT22;38507;53.132;6.394;2024-01-30T09:42:28;8.90;99.90
52209;DHT22;38507;53.132;6.394;2024-01-30T09:44:58;8.90;99.90
52209;DHT22;38507;53.132;6.394;2024-01-30T09:47:24;9.60;99.90
52209;DHT22;38507;53.132;6.394;2024-01-30T09:49:51;9.60;99.90
52209;DHT22;38507;53.132;6.394;2024-01-30T09:52:16;9.70;99.90
52209;DHT22;38507;53.132;6.394;2024-01-30T09:54:45;9.10;99.90
52209;DHT22;38507;53.132;6.394;2024-01-30T09:57:11;9.80;99.90
52209;DHT22;38507;53.132;6.394;2024-01-30T09:59:37;9.70;99.90
52209;DHT22;38507;53.132;6.394;2024-01-30T10:02:03;9.20;99.90
52209;DHT22;38507;53.132;6.394;2024-01-30T10:04:30;9.30;99.90
52209;DHT22;38507;53.132;6.394;2024-01-30T10:06:56;9.30;99.90
52209;DHT22;38507;53.132;6.394;2024-01-30T10:09:21;9.60;99.90
52209;DHT22;38507;53.132;6.394;2024-01-30T10:11:48;9.70;99.90
52209;DHT22;38507;53.132;6.394;2024-01-30T10:14:15;9.60;99.90
52209;DHT22;38507;53.132;6.394;2024-01-30T10:16:40;9.40;99.90
52209;DHT22;38507;53.132;6.394;2024-01-30T10:19:06;9.40;99.90
52209;DHT22;38507;53.132;6.394;2024-01-30T10:21:32;9.40;99.90
52209;DHT22;38507;53.132;6.394;2024-01-30T10:23:57;10.20;99.90
52209;DHT22;38507;53.132;6.394;2024-01-30T10:26:23;9.40;99.90
52209;DHT22;38507;53.132;6.394;2024-01-30T10:28:49;10.10;99.90
52209;DHT22;38507;53.132;6.394;2024-01-30T10:31:18;9.50;99.90
52209;DHT22;38507;53.132;6.394;2024-01-30T10:33:44;9.50;99.90
52209;DHT22;38507;53.132;6.394;2024-01-30T10:36:13;10.20;99.90
52209;DHT22;38507;53.132;6.394;2024-01-30T10:38:42;9.50;99.90
52209;DHT22;38507;53.132;6.394;2024-01-30T10:41:11;9.80;99.90
52209;DHT22;38507;53.132;6.394;2024-01-30T10:43:50;10.50;99.90
52209;DHT22;38507;53.132;6.394;2024-01-30T10:46:19;9.60;99.90
52209;DHT22;38507;53.132;6.394;2024-01-30T10:48:51;9.60;99.90
52209;DHT22;38507;53.132;6.394;2024-01-30T10:51:19;9.60;99.90
52209;DHT22;38507;53.132;6.394;2024-01-30T10:53:46;9.80;99.90
52209;DHT22;38507;53.132;6.394;2024-01-30T10:56:12;10.00;99.90
52209;DHT22;38507;53.132;6.394;2024-01-30T10:58:38;9.70;99.90
52209;DHT22;38507;53.132;6.394;2024-01-30T11:01:05;9.80;99.90
52209;DHT22;38507;53.132;6.394;2024-01-30T11:03:32;9.90;99.90
52209;DHT22;38507;53.132;6.394;2024-01-30T11:06:00;9.80;99.90
52209;DHT22;38507;53.132;6.394;2024-01-30T11:08:27;9.80;99.90
52209;DHT22;38507;53.132;6.394;2024-01-30T11:10:57;10.70;99.90
52209;DHT22;38507;53.132;6.394;2024-01-30T11:13:30;9.90;99.90
52209;DHT22;38507;53.132;6.394;2024-01-30T11:16:06;10.10;99.90
52209;DHT22;38507;53.132;6.394;2024-01-30T11:18:32;9.90;99.90
52209;DHT22;38507;53.132;6.394;2024-01-30T11:21:01;9.90;99.90
52209;DHT22;38507;53.132;6.394;2024-01-30T11:23:27;9.90;99.90
52209;DHT22;38507;53.132;6.394;2024-01-30T11:25:54;10.50;99.90
52209;DHT22;38507;53.132;6.394;2024-01-30T11:28:21;10.00;99.90
52209;DHT22;38507;53.132;6.394;2024-01-30T11:30:47;9.90;99.90
52209;DHT22;38507;53.132;6.394;2024-01-30T11:33:26;9.90;99.90
52209;DHT22;38507;53.132;6.394;2024-01-30T11:35:52;9.80;99.90
52209;DHT22;38507;53.132;6.394;2024-01-30T11:38:18;9.70;99.90
52209;DHT22;38507;53.132;6.394;2024-01-30T11:40:44;10.20;99.90
52209;DHT22;38507;53.132;6.394;2024-01-30T11:43:10;10.60;99.90
52209;DHT22;38507;53.132;6.394;2024-01-30T11:45:37;9.90;99.90
52209;DHT22;38507;53.132;6.394;2024-01-30T11:48:05;10.40;99.90
52209;DHT22;38507;53.132;6.394;2024-01-30T11:50:31;9.60;99.90
52209;DHT22;38507;53.132;6.394;2024-01-30T11:52:59;10.20;99.90
52209;DHT22;38507;53.132;6.394;2024-01-30T11:55:25;10.40;99.90
52209;DHT22;38507;53.132;6.394;2024-01-30T11:57:51;9.50;99.90
52209;DHT22;38507;53.132;6.394;2024-01-30T12:00:20;10.30;99.90
52209;DHT22;38507;53.132;6.394;2024-01-30T12:02:53;9.50;99.90
52209;DHT22;38507;53.132;6.394;2024-01-30T12:05:23;9.60;99.90
52209;DHT22;38507;53.132;6.394;2024-01-30T12:07:49;9.40;99.90
52209;DHT22;38507;53.132;6.394;2024-01-30T12:10:15;10.00;99.90
52209;DHT22;38507;53.132;6.394;2024-01-30T12:12:43;9.40;99.90
52209;DHT22;38507;53.132;6.394;2024-01-30T12:15:10;9.40;99.90
52209;DHT22;38507;53.132;6.394;2024-01-30T12:17:36;10.30;99.90
52209;DHT22;38507;53.132;6.394;2024-01-30T12:22:42;9.40;99.90
52209;DHT22;38507;53.132;6.394;2024-01-30T12:25:09;9.90;99.90
52209;DHT22;38507;53.132;6.394;2024-01-30T12:27:39;10.00;99.90
52209;DHT22;38507;53.132;6.394;2024-01-30T12:30:06;9.40;99.90
52209;DHT22;38507;53.132;6.394;2024-01-30T12:32:41;9.40;99.90
52209;DHT22;38507;53.132;6.394;2024-01-30T12:35:12;9.40;99.90
52209;DHT22;38507;53.132;6.394;2024-01-30T12:37:42;9.40;99.90
52209;DHT22;38507;53.132;6.394;2024-01-30T12:40:08;9.40;99.90
52209;DHT22;38507;53.132;6.394;2024-01-30T12:42:35;9.40;99.90
52209;DHT22;38507;53.132;6.394;2024-01-30T12:45:02;10.20;99.90
52209;DHT22;38507;53.132;6.394;2024-01-30T12:47:29;9.40;99.90
52209;DHT22;38507;53.132;6.394;2024-01-30T12:49:54;9.30;99.90
52209;DHT22;38507;53.132;6.394;2024-01-30T12:52:21;9.90;99.90
52209;DHT22;38507;53.132;6.394;2024-01-30T12:54:48;10.20;99.90
52209;DHT22;38507;53.132;6.394;2024-01-30T12:57:14;9.30;99.90
52209;DHT22;38507;53.132;6.394;2024-01-30T12:59:39;9.30;99.90
52209;DHT22;38507;53.132;6.394;2024-01-30T13:02:06;9.80;99.90
52209;DHT22;38507;53.132;6.394;2024-01-30T13:04:32;10.10;99.90
52209;DHT22;38507;53.132;6.394;2024-01-30T13:06:58;9.60;99.90
52209;DHT22;38507;53.132;6.394;2024-01-30T13:09:25;9.80;99.90
52209;DHT22;38507;53.132;6.394;2024-01-30T13:11:51;10.20;99.90
52209;DHT22;38507;53.132;6.394;2024-01-30T13:14:17;9.30;99.90
52209;DHT22;38507;53.132;6.394;2024-01-30T13:16:43;9.30;99.90
52209;DHT22;38507;53.132;6.394;2024-01-30T13:19:09;9.30;99.90
52209;DHT22;38507;53.132;6.394;2024-01-30T13:21:34;9.60;99.90
52209;DHT22;38507;53.132;6.394;2024-01-30T13:24:00;10.40;99.90
52209;DHT22;38507;53.132;6.394;2024-01-30T13:26:26;9.30;99.90
52209;DHT22;38507;53.132;6.394;2024-01-30T13:28:51;9.90;99.90
52209;DHT22;38507;53.132;6.394;2024-01-30T13:31:17;10.00;99.90
52209;DHT22;38507;53.132;6.394;2024-01-30T13:33:44;9.80;99.90
52209;DHT22;38507;53.132;6.394;2024-01-30T13:36:11;9.50;99.90
52209;DHT22;38507;53.132;6.394;2024-01-30T13:38:37;10.10;99.90
52209;DHT22;38507;53.132;6.394;2024-01-30T13:41:03;9.20;99.90
52209;DHT22;38507;53.132;6.394;2024-01-30T13:43:29;9.20;99.90
52209;DHT22;38507;53.132;6.394;2024-01-30T13:45:54;9.80;99.90
52209;DHT22;38507;53.132;6.394;2024-01-30T13:48:20;10.20;99.90
52209;DHT22;38507;53.132;6.394;2024-01-30T13:50:47;9.70;99.90
52209;DHT22;38507;53.132;6.394;2024-01-30T13:53:13;10.10;99.90
52209;DHT22;38507;53.132;6.394;2024-01-30T13:55:39;9.20;99.90
52209;DHT22;38507;53.132;6.394;2024-01-30T13:58:05;9.20;99.90
52209;DHT22;38507;53.132;6.394;2024-01-30T14:00:31;9.10;99.90
52209;DHT22;38507;53.132;6.394;2024-01-30T14:02:57;9.60;99.90
52209;DHT22;38507;53.132;6.394;2024-01-30T14:05:24;9.40;99.90
52209;DHT22;38507;53.132;6.394;2024-01-30T14:07:54;9.60;99.90
52209;DHT22;38507;53.132;6.394;2024-01-30T14:10:20;8.90;99.90
52209;DHT22;38507;53.132;6.394;2024-01-30T14:12:46;9.80;99.90
52209;DHT22;38507;53.132;6.394;2024-01-30T14:15:13;8.90;99.90
52209;DHT22;38507;53.132;6.394;2024-01-30T14:17:40;9.20;99.90
52209;DHT22;38507;53.132;6.394;2024-01-30T14:20:06;8.70;99.90
52209;DHT22;38507;53.132;6.394;2024-01-30T14:22:33;8.70;99.90
52209;DHT22;38507;53.132;6.394;2024-01-30T14:24:59;9.40;99.90
52209;DHT22;38507;53.132;6.394;2024-01-30T14:27:25;9.20;99.90
52209;DHT22;38507;53.132;6.394;2024-01-30T14:29:50;8.70;99.90
52209;DHT22;38507;53.132;6.394;2024-01-30T14:32:16;8.50;99.90
52209;DHT22;38507;53.132;6.394;2024-01-30T14:34:42;8.40;99.90
52209;DHT22;38507;53.132;6.394;2024-01-30T14:37:08;8.90;99.90
52209;DHT22;38507;53.132;6.394;2024-01-30T14:39:33;9.20;99.90
52209;DHT22;38507;53.132;6.394;2024-01-30T14:41:59;8.40;99.90
52209;DHT22;38507;53.132;6.394;2024-01-30T14:44:25;9.20;99.90
52209;DHT22;38507;53.132;6.394;2024-01-30T14:46:51;8.40;99.90
52209;DHT22;38507;53.132;6.394;2024-01-30T14:49:17;8.70;99.90
52209;DHT22;38507;53.132;6.394;2024-01-30T14:51:43;8.20;99.90
52209;DHT22;38507;53.132;6.394;2024-01-30T14:54:08;8.20;99.90
52209;DHT22;38507;53.132;6.394;2024-01-30T14:56:34;8.80;99.90
52209;DHT22;38507;53.132;6.394;2024-01-30T14:59:00;8.40;99.90
52209;DHT22;38507;53.132;6.394;2024-01-30T15:01:26;9.20;99.90
52209;DHT22;38507;53.132;6.394;2024-01-30T15:03:52;8.20;99.90
52209;DHT22;38507;53.132;6.394;2024-01-30T15:06:18;8.40;99.90
52209;DHT22;38507;53.132;6.394;2024-01-30T15:08:44;8.70;99.90
52209;DHT22;38507;53.132;6.394;2024-01-30T15:11:10;8.90;99.90
52209;DHT22;38507;53.132;6.394;2024-01-30T15:13:36;8.10;99.90
52209;DHT22;38507;53.132;6.394;2024-01-30T15:16:02;9.00;99.90
52209;DHT22;38507;53.132;6.394;2024-01-30T15:18:30;8.10;99.90
52209;DHT22;38507;53.132;6.394;2024-01-30T15:20:56;9.00;99.90
52209;DHT22;38507;53.132;6.394;2024-01-30T15:23:21;8.60;99.90
52209;DHT22;38507;53.132;6.394;2024-01-30T15:25:47;8.20;99.90
52209;DHT22;38507;53.132;6.394;2024-01-30T15:28:13;8.80;99.90
52209;DHT22;38507;53.132;6.394;2024-01-30T15:30:43;9.00;99.90
52209;DHT22;38507;53.132;6.394;2024-01-30T15:33:09;8.10;99.90
52209;DHT22;38507;53.132;6.394;2024-01-30T15:35:35;8.20;99.90
52209;DHT22;38507;53.132;6.394;2024-01-30T15:38:01;8.50;99.90
52209;DHT22;38507;53.132;6.394;2024-01-30T15:40:26;9.10;99.90
52209;DHT22;38507;53.132;6.394;2024-01-30T15:42:52;8.00;99.90